DCM352 KGYY-KBUF
Flight info
| Callsign | DCM352 |
|---|---|
| Flight time | N/A |
| Altitude | 41000 |
| Route | LEWKE GIJ |
| Aircraft | B737/M-SDE2E3FGHIRWXY/LB1 |
Departure
| Time | 2026-04-25 01:50 |
|---|---|
| Airport | Gary/Chicago International Airport (KGYY) |
Arrival
| Time | N/A |
|---|---|
| Airport | Buffalo Niagara International Airport (KBUF) |
| Time | Latitude | Longitude | Altitude | Speed | Heading |
|---|---|---|---|---|---|
| 2026-04-25 01:36 | 41.61753 | -87.41066 | 601 ft | 0 kts | 213° |
| 2026-04-25 01:47 | 41.61737 | -87.41076 | 601 ft | 6 kts | 197° |
| 2026-04-25 01:47 | 41.61687 | -87.41035 | 600 ft | 11 kts | 125° |
| 2026-04-25 01:48 | 41.61642 | -87.40947 | 599 ft | 12 kts | 124° |
| 2026-04-25 01:48 | 41.61593 | -87.40851 | 599 ft | 13 kts | 125° |
| 2026-04-25 01:48 | 41.61532 | -87.40734 | 597 ft | 18 kts | 123° |
| 2026-04-25 01:48 | 41.61458 | -87.40584 | 598 ft | 20 kts | 123° |
| 2026-04-25 01:49 | 41.61377 | -87.40422 | 598 ft | 22 kts | 124° |
| 2026-04-25 01:49 | 41.61290 | -87.40254 | 603 ft | 22 kts | 124° |
| 2026-04-25 01:49 | 41.61204 | -87.40083 | 603 ft | 23 kts | 123° |
| 2026-04-25 01:49 | 41.61108 | -87.40020 | 604 ft | 16 kts | 212° |
| 2026-04-25 01:50 | 41.61105 | -87.40148 | 601 ft | 28 kts | 303° |
| 2026-04-25 01:50 | 41.61384 | -87.40700 | 595 ft | 113 kts | 304° |
| 2026-04-25 01:50 | 41.61941 | -87.41803 | 788 ft | 160 kts | 304° |
| 2026-04-25 01:50 | 41.62541 | -87.43008 | 1814 ft | 147 kts | 303° |
| 2026-04-25 01:51 | 41.63001 | -87.44129 | 2906 ft | 132 kts | 302° |
| 2026-04-25 01:51 | 41.63466 | -87.45259 | 3478 ft | 154 kts | 305° |
| 2026-04-25 01:51 | 41.64388 | -87.46203 | 3799 ft | 188 kts | 343° |
| 2026-04-25 01:51 | 41.65779 | -87.46149 | 4073 ft | 220 kts | 17° |
| 2026-04-25 01:52 | 41.67063 | -87.44894 | 4546 ft | 240 kts | 49° |
| 2026-04-25 01:52 | 41.67839 | -87.42861 | 5165 ft | 252 kts | 67° |
| 2026-04-25 01:52 | 41.68397 | -87.40567 | 5643 ft | 271 kts | 71° |
| 2026-04-25 01:52 | 41.68948 | -87.38093 | 6351 ft | 283 kts | 71° |